Pagrindinis puslapis
METAR-TAF:

METAR-TAF

Oro uostai :

Kittilä, Suomija

platuma: 67-42N, ilguma: 024-51E, Aukštis: 196 m

Dabartinis oras

Ataskaita buvo paskelbta 39 minutes, ne 11:50 UTC
Vėjas 14 kt iš Šiaurės/Šiaurės Rytų, svyruoja nuo Šiaurės ir Šiaurės Rytų
Temperatūra -4°C
Drėgmė 46%
Slėgis 1018 hPa
Matomumas 10 km arba daugiau
nėra debesų žemiau 1500 m ir nėra kamuolinių lietaus debesų

METAR: EFKT 201150Z 02014KT 350V050 CAVOK M04/M14 Q1018

Laikas: 15:29 (12:29 UTC)

Prognozė

Ataskaita buvo paskelbta 1 valandą ir 5 minutes, ne 11:24 UTC
Prognozė galioja nuo 20 metu 12 UTC su 20 metu 18 UTC
Vėjas 11 kt iš Šiaurės/Šiaurės Rytų
Matomumas 10 km arba daugiau
nėra debesų žemiau 1500 m ir nėra kamuolinių lietaus debesų

TAF: EFKT 201124Z 2012/2018 03011KT CAVOK

Orai ataskaitas ir orų prognozės (METAR, TAF).

turimą stotys yra geltonos ir raudonos taškus žemėlapyje.

Perkelti pele per norėdami pamatyti stoties vardą.

Tada spustelėkite, norėdami matyti oro stebėjimo ir prognozės.

Norėdami pakeisti žemėlapį: spustelėkite ant žalios mygtukų su juodo kryžiaus žemyn,; žalią mygtuką su brūkšneliu, jei norite nutolinti; arba žalių rodyklių gretimoms žemėlapius.


METAR-TAF: